logo
Rechercher aéroport 
image banner adimage banner adimage banner ad
image banner ad

OPMJ - Moenjodaro

Situé à Moenjodaro, Pakistan

ICAO - OPMJ, IATA - MJD

Données fournies par Airmate  

Information générale

Coordonnées: N27°20'7" E68°8'35"
Élévation : 154 feet MSL.
 
Voir autres Aéroports à Sindh

Données opérationnelles

Special qualification required
Heure actuelle UTC:
Heure actuelle locale:
METAR: OPSK 240600Z 13506KT 5000 HZ NSC 43/20 Q0999 NOSIG
TAF: TAF OPSK 240500Z 2406/2506 23008KT 5000 HZ NSC BECMG 2417/2419 13006KT 4000 HZ NSC TEMPO 2501/2505 VRB03KT 4000 HZ NSC
Voir NOTAMs / SUP AIP / TFR affectant cet aéroport [VIEW]
Fréquences de communication: [VIEW]

Pistes:

Identifiant RWYQFULongueur (ft)Largeur (ft)SurfaceLDA (ft)
0876°649998ASP
26256°649998ASP

Coordonnées de l'aéroport

Adresse: Moenjodaro Pakistan

Vue satellite de OPMJ